サンティアゴ の空港の天気 - METARとTAF

アルトゥーロ・メリノ・ベニテス国際空港(サンティアゴ) ( SCEL / SCL ) - チリ サンティアゴ
飛行場実況気象(Metar)
観測時間04/21 13:00 CLT (04/21 17:00 UTC)
風向・風速南 2m/s
視程10km以上
天気現象
なし
気温18℃
湿度52%
気圧1017hPa
METARSCEL 211700Z 19004KT 100V240 CAVOK 18/08 Q1017 NOSIG
過去の天気等 Google飛行場航空写真 Wunderground天気予報

過去48時間のMETAR

飛行場予報(TAF)
発表時間: 4/21 06:00 CLT (4/21 10:00 UTC)
予報対象時間: 21日8時 CLT ~ 22日8時 CLT
風向・風速南南東 2m/s
視程6000m
なし
21日8時 CLT ~ 21日10時 CLT に一時的に
風向・風速不定 1m/s
視程2000m
天気現象もや
なし
21日12時 CLT ~ 21日14時 CLT に徐々に
風向・風速南 3m/s
視程10km以上
なし
21日14時 CLT ~ 21日16時 CLT に徐々に
風向・風速南南西 6m/s
21日22時 CLT ~ 21日24時 CLT に徐々に
風向・風速南南東 3m/s
TAF SCEL 211000Z 2112/2212 15004KT 6000 NSC TX20/2118Z TN06/2211Z
TEMPO 2112/2114 VRB02KT 2000 BR NSC
BECMG 2116/2118 18005KT CAVOK
BECMG 2118/2120 20012KT
BECMG 2202/2204 16005KT